x

Newport, Or (nwpo3) Weather Station

5:00pm - Fri 1st Aug 2014 All times are PDT. -7 hours from GMT.

  • Wind
    2mph, 3mph gusts
  • Air Temp 54°f
  • Sea Pressure 1016.7mb
  • Newport, Or
  • Newport, Or

More Historic Weather Station data

Upgrade to MSW Pro to gain access to the past 30 days of data for over 8000 Wavebouys and Weather Stations around the globe.

Join Pro

Comparision Forecast

View Surf forecast
   
Fri 08/01 5:00pm 2 3 mph 1016.7mb 54f
4:00pm 7 11 mph 1016.7mb 52f
3:00pm 2 6 mph 1017.2mb 52f
2:00pm 13 15 mph 1017.2mb 53f
1:00pm 14 16 mph 1017.5mb 53f
12:00pm 23 25 mph 1016.9mb 53f
11:00am 22 24 mph 1017.2mb 54f
10:00am 24 29 mph 1017.2mb 54f
9:00am 22 24 mph 1017.4mb 55f
8:00am 7 8 mph 1017.7mb 56f
7:00am 16 17 mph 1017.3mb 54f
6:00am 14 16 mph 1017.6mb 55f
5:00am 7 11 mph 1017.5mb 55f
4:00am 13 15 mph 1017.3mb 52f
3:00am 13 15 mph 1017.5mb 54f
2:00am 11 13 mph 1017.6mb 52f
1:00am 17 20 mph 1018.2mb 55f
12:00am 16 18 mph 1017.9mb 54f
Thu 07/31 11:00pm 23 26 mph 1017.1mb 53f
10:00pm 23 25 mph 1017.2mb 56f
9:00pm 25 30 mph 1016.7mb 57f
8:00pm 24 26 mph 1016.7mb 55f
7:00pm 10 14 mph 1016.9mb 53f
6:00pm 22 24 mph 1016.6mb 53f
5:00pm 29 33 mph 1016mb 54f
4:00pm 21 23 mph 1017.3mb 54f
3:00pm 21 23 mph 1017.6mb 53f
2:00pm 25 28 mph 1017.6mb 54f
1:00pm 21 23 mph 1018.1mb 54f
12:00pm 25 28 mph 1018.3mb 54f
11:00am 24 26 mph 1018.4mb 54f
10:00am 18 21 mph 1018.7mb 54f
9:00am 8 10 mph 1019.1mb 54f
8:00am  -  1 mph 1018.9mb 54f
7:00am 3 5 mph 1018.6mb 52f
6:00am 2
mph
1018.6mb 52f
5:00am 5
mph
1018.6mb 51f
4:00am  -  mph 1019.1mb 53f
3:00am 6
mph
1018.9mb 52f
2:00am 1 2 mph 1019.2mb 53f
1:00am 11 14 mph 1019.3mb 52f
12:00am 11 14 mph 1019mb 55f
Wed 07/30 11:00pm 15 18 mph 1018.6mb 54f
10:00pm 18 21 mph 1018.8mb 54f
9:00pm 21 24 mph 1018.9mb 54f
8:00pm 25 29 mph 1018.7mb 55f
7:00pm 24 26 mph 1018.5mb 54f
6:00pm 22 24 mph 1018.3mb 53f
5:00pm 24 26 mph 1018.6mb 53f
4:00pm 23 28 mph 1019mb 53f
3:00pm 23 28 mph 1019.4mb 53f
2:00pm 23 26 mph 1019.9mb 53f
1:00pm 28 30 mph 1020mb 54f
12:00pm 25 29 mph 1020.3mb 54f
11:00am 21 24 mph 1020.4mb 53f
10:00am 9 10 mph 1020.6mb 54f
9:00am 8 9 mph 1020.9mb 51f
8:00am 5 6 mph 1020.8mb 51f
7:00am 8 9 mph 1020.8mb 51f
6:00am 10 11 mph 1020.7mb 51f
5:00am 8 11 mph 1020.7mb 51f
4:00am 11
mph
1020.5mb 51f
3:00am 13 14 mph 1020.3mb 52f
2:00am 11 13 mph 1020.4mb 52f
1:00am 13 14 mph 1020.5mb 52f
12:00am 14 15 mph 1020.5mb 52f
Tue 07/29 11:00pm 14 15 mph 1020.7mb 52f
10:00pm 14 16 mph 1020.7mb 52f
9:00pm 18 21 mph 1020.4mb 53f
8:00pm 17 20 mph 1020.3mb 53f
7:00pm 20 23 mph 1020.2mb 53f
6:00pm 15 18 mph 1020.5mb 53f
5:00pm 16 18 mph 1020.6mb 53f
4:00pm 16 18 mph 1020.8mb 53f
3:00pm 15 17 mph 1021mb 53f
2:00pm 18 20 mph 1021mb 52f
1:00pm 16 17 mph 1021.2mb 51f
12:00pm 23 26 mph 1020.9mb 52f
11:00am 22 25 mph 1021.1mb 53f
10:00am 20 22 mph 1021mb 54f
9:00am 17 20 mph 1021.2mb 53f
8:00am 9 11 mph 1021.2mb 52f
7:00am 8
mph
1021.1mb 51f
6:00am 9 10 mph 1020.8mb 51f
5:00am 9 11 mph 1020.6mb 50f
4:00am 13 16 mph 1020.3mb 52f
3:00am 11 15 mph 1020mb 52f
2:00am 13 16 mph 1020mb 53f